sensor_id;sensor_type;location;lat;lon;timestamp;temperature;humidity
429;DHT22;201;48.758;9.290;2023-08-24T00:01:31;20.50;1.00
429;DHT22;201;48.758;9.290;2023-08-24T00:03:57;20.50;1.00
429;DHT22;201;48.758;9.290;2023-08-24T00:06:22;20.40;1.00
429;DHT22;201;48.758;9.290;2023-08-24T00:08:48;20.40;1.00
429;DHT22;201;48.758;9.290;2023-08-24T00:11:13;20.50;1.00
429;DHT22;201;48.758;9.290;2023-08-24T00:13:43;20.40;1.00
429;DHT22;201;48.758;9.290;2023-08-24T00:16:18;20.40;1.00
429;DHT22;201;48.758;9.290;2023-08-24T00:18:44;20.30;1.00
429;DHT22;201;48.758;9.290;2023-08-24T00:21:10;20.30;1.00
429;DHT22;201;48.758;9.290;2023-08-24T00:23:36;20.30;1.00
429;DHT22;201;48.758;9.290;2023-08-24T00:26:01;20.40;1.00
429;DHT22;201;48.758;9.290;2023-08-24T00:28:27;20.40;1.00
429;DHT22;201;48.758;9.290;2023-08-24T00:30:53;20.30;1.00
429;DHT22;201;48.758;9.290;2023-08-24T00:33:18;20.20;1.00
429;DHT22;201;48.758;9.290;2023-08-24T00:35:44;20.10;1.00
429;DHT22;201;48.758;9.290;2023-08-24T00:38:10;20.00;1.00
429;DHT22;201;48.758;9.290;2023-08-24T00:40:36;19.90;1.00
429;DHT22;201;48.758;9.290;2023-08-24T00:43:01;19.80;1.00
429;DHT22;201;48.758;9.290;2023-08-24T00:45:27;19.60;1.00
429;DHT22;201;48.758;9.290;2023-08-24T00:47:52;19.50;1.00
429;DHT22;201;48.758;9.290;2023-08-24T00:50:18;19.40;1.00
429;DHT22;201;48.758;9.290;2023-08-24T00:52:45;19.40;1.00
429;DHT22;201;48.758;9.290;2023-08-24T00:55:13;19.30;1.00
429;DHT22;201;48.758;9.290;2023-08-24T00:57:39;19.30;1.00
429;DHT22;201;48.758;9.290;2023-08-24T01:00:07;19.30;1.00
429;DHT22;201;48.758;9.290;2023-08-24T01:02:39;19.30;1.00
429;DHT22;201;48.758;9.290;2023-08-24T01:05:05;19.40;1.00
429;DHT22;201;48.758;9.290;2023-08-24T01:07:34;19.50;1.00
429;DHT22;201;48.758;9.290;2023-08-24T01:10:02;19.50;1.00
429;DHT22;201;48.758;9.290;2023-08-24T01:18:20;19.50;1.00
429;DHT22;201;48.758;9.290;2023-08-24T01:20:47;19.50;1.00
429;DHT22;201;48.758;9.290;2023-08-24T01:26:13;19.40;1.00
429;DHT22;201;48.758;9.290;2023-08-24T01:28:41;19.40;1.00
429;DHT22;201;48.758;9.290;2023-08-24T01:31:07;19.40;1.00
429;DHT22;201;48.758;9.290;2023-08-24T01:33:33;19.30;1.00
429;DHT22;201;48.758;9.290;2023-08-24T01:35:59;19.40;1.00
429;DHT22;201;48.758;9.290;2023-08-24T01:38:25;19.30;1.00
429;DHT22;201;48.758;9.290;2023-08-24T01:41:12;19.20;1.00
429;DHT22;201;48.758;9.290;2023-08-24T01:43:44;19.20;1.00
429;DHT22;201;48.758;9.290;2023-08-24T01:46:14;19.10;1.00
429;DHT22;201;48.758;9.290;2023-08-24T01:48:40;19.00;1.00
429;DHT22;201;48.758;9.290;2023-08-24T01:51:06;18.90;1.00
429;DHT22;201;48.758;9.290;2023-08-24T01:53:33;18.90;1.00
429;DHT22;201;48.758;9.290;2023-08-24T01:55:58;18.90;1.00
429;DHT22;201;48.758;9.290;2023-08-24T01:58:24;18.90;1.00
429;DHT22;201;48.758;9.290;2023-08-24T02:00:49;18.90;1.00
429;DHT22;201;48.758;9.290;2023-08-24T02:03:15;18.90;1.00
429;DHT22;201;48.758;9.290;2023-08-24T02:05:40;18.90;1.00
429;DHT22;201;48.758;9.290;2023-08-24T02:08:06;18.90;1.00
429;DHT22;201;48.758;9.290;2023-08-24T02:10:31;18.90;1.00
429;DHT22;201;48.758;9.290;2023-08-24T02:12:57;18.90;1.00
429;DHT22;201;48.758;9.290;2023-08-24T02:15:22;19.00;1.00
429;DHT22;201;48.758;9.290;2023-08-24T02:17:48;19.00;1.00
429;DHT22;201;48.758;9.290;2023-08-24T02:20:14;19.10;1.00
429;DHT22;201;48.758;9.290;2023-08-24T02:22:39;19.10;1.00
429;DHT22;201;48.758;9.290;2023-08-24T02:25:06;19.20;1.00
429;DHT22;201;48.758;9.290;2023-08-24T02:27:32;19.20;1.00
429;DHT22;201;48.758;9.290;2023-08-24T02:29:58;19.20;1.00
429;DHT22;201;48.758;9.290;2023-08-24T02:32:23;19.20;1.00
429;DHT22;201;48.758;9.290;2023-08-24T02:34:49;19.20;1.00
429;DHT22;201;48.758;9.290;2023-08-24T02:37:14;19.20;1.00
429;DHT22;201;48.758;9.290;2023-08-24T02:39:40;19.20;1.00
429;DHT22;201;48.758;9.290;2023-08-24T02:42:05;19.10;1.00
429;DHT22;201;48.758;9.290;2023-08-24T02:44:31;19.10;1.00
429;DHT22;201;48.758;9.290;2023-08-24T02:46:56;19.10;1.00
429;DHT22;201;48.758;9.290;2023-08-24T02:49:22;19.10;1.00
429;DHT22;201;48.758;9.290;2023-08-24T02:51:48;19.10;1.00
429;DHT22;201;48.758;9.290;2023-08-24T02:54:13;19.10;1.00
429;DHT22;201;48.758;9.290;2023-08-24T02:56:39;19.00;1.00
429;DHT22;201;48.758;9.290;2023-08-24T02:59:04;19.00;1.00
429;DHT22;201;48.758;9.290;2023-08-24T03:01:30;19.00;1.10
429;DHT22;201;48.758;9.290;2023-08-24T03:03:55;19.00;2.00
429;DHT22;201;48.758;9.290;2023-08-24T03:06:21;18.90;3.70
429;DHT22;201;48.758;9.290;2023-08-24T03:08:49;19.00;3.40
429;DHT22;201;48.758;9.290;2023-08-24T03:11:14;18.90;3.10
429;DHT22;201;48.758;9.290;2023-08-24T03:13:40;19.00;3.00
429;DHT22;201;48.758;9.290;2023-08-24T03:16:06;19.00;2.80
429;DHT22;201;48.758;9.290;2023-08-24T03:18:32;19.10;2.80
429;DHT22;201;48.758;9.290;2023-08-24T03:20:58;19.10;2.70
429;DHT22;201;48.758;9.290;2023-08-24T03:23:24;19.00;2.70
429;DHT22;201;48.758;9.290;2023-08-24T03:25:49;19.10;2.70
429;DHT22;201;48.758;9.290;2023-08-24T03:28:15;19.10;2.70
429;DHT22;201;48.758;9.290;2023-08-24T03:30:47;19.00;2.80
429;DHT22;201;48.758;9.290;2023-08-24T03:33:13;19.00;2.70
429;DHT22;201;48.758;9.290;2023-08-24T03:35:40;19.10;2.20
429;DHT22;201;48.758;9.290;2023-08-24T03:38:05;19.00;1.40
429;DHT22;201;48.758;9.290;2023-08-24T03:40:31;19.00;1.30
429;DHT22;201;48.758;9.290;2023-08-24T03:42:57;19.00;1.50
429;DHT22;201;48.758;9.290;2023-08-24T03:45:23;19.10;1.50
429;DHT22;201;48.758;9.290;2023-08-24T03:47:48;19.00;1.20
429;DHT22;201;48.758;9.290;2023-08-24T03:50:14;19.00;1.20
429;DHT22;201;48.758;9.290;2023-08-24T03:52:40;19.00;1.00
429;DHT22;201;48.758;9.290;2023-08-24T03:55:06;18.90;1.30
429;DHT22;201;48.758;9.290;2023-08-24T03:57:32;18.80;1.60
429;DHT22;201;48.758;9.290;2023-08-24T03:59:58;18.70;1.90
429;DHT22;201;48.758;9.290;2023-08-24T04:02:23;18.70;2.10
429;DHT22;201;48.758;9.290;2023-08-24T04:04:50;18.60;2.20
429;DHT22;201;48.758;9.290;2023-08-24T04:07:16;18.50;2.30
429;DHT22;201;48.758;9.290;2023-08-24T04:09:41;18.60;2.40
429;DHT22;201;48.758;9.290;2023-08-24T04:12:07;18.60;2.50
429;DHT22;201;48.758;9.290;2023-08-24T04:14:33;18.70;2.30
429;DHT22;201;48.758;9.290;2023-08-24T04:16:58;18.80;2.00
429;DHT22;201;48.758;9.290;2023-08-24T04:19:24;18.80;1.80
429;DHT22;201;48.758;9.290;2023-08-24T04:21:49;18.70;1.60
429;DHT22;201;48.758;9.290;2023-08-24T04:24:15;18.70;1.60
429;DHT22;201;48.758;9.290;2023-08-24T04:26:40;18.60;1.90
429;DHT22;201;48.758;9.290;2023-08-24T04:29:06;18.60;2.10
429;DHT22;201;48.758;9.290;2023-08-24T04:31:31;18.60;2.40
429;DHT22;201;48.758;9.290;2023-08-24T04:33:57;18.60;2.50
429;DHT22;201;48.758;9.290;2023-08-24T04:36:22;18.60;2.50
429;DHT22;201;48.758;9.290;2023-08-24T04:38:48;18.50;2.70
429;DHT22;201;48.758;9.290;2023-08-24T04:41:13;18.50;2.80
429;DHT22;201;48.758;9.290;2023-08-24T04:43:39;18.40;3.00
429;DHT22;201;48.758;9.290;2023-08-24T04:46:04;18.40;3.20
429;DHT22;201;48.758;9.290;2023-08-24T04:48:30;18.40;3.30
429;DHT22;201;48.758;9.290;2023-08-24T04:50:58;18.30;3.30
429;DHT22;201;48.758;9.290;2023-08-24T04:53:24;18.40;3.30
429;DHT22;201;48.758;9.290;2023-08-24T04:55:50;18.40;3.30
429;DHT22;201;48.758;9.290;2023-08-24T04:58:16;18.40;3.30
429;DHT22;201;48.758;9.290;2023-08-24T05:00:42;18.40;3.10
429;DHT22;201;48.758;9.290;2023-08-24T05:03:08;18.40;3.10
429;DHT22;201;48.758;9.290;2023-08-24T05:05:35;18.40;3.20
429;DHT22;201;48.758;9.290;2023-08-24T05:08:02;18.30;3.20
429;DHT22;201;48.758;9.290;2023-08-24T05:10:33;18.30;3.40
429;DHT22;201;48.758;9.290;2023-08-24T05:12:58;18.30;3.30
429;DHT22;201;48.758;9.290;2023-08-24T05:15:24;18.20;3.60
429;DHT22;201;48.758;9.290;2023-08-24T05:17:50;18.20;3.70
429;DHT22;201;48.758;9.290;2023-08-24T05:20:20;18.20;3.80
429;DHT22;201;48.758;9.290;2023-08-24T05:22:46;18.40;3.80
429;DHT22;201;48.758;9.290;2023-08-24T05:25:11;18.40;3.30
429;DHT22;201;48.758;9.290;2023-08-24T05:27:37;18.50;2.80
429;DHT22;201;48.758;9.290;2023-08-24T05:30:03;18.60;3.30
429;DHT22;201;48.758;9.290;2023-08-24T05:32:29;18.70;2.60
429;DHT22;201;48.758;9.290;2023-08-24T05:34:54;18.80;1.60
429;DHT22;201;48.758;9.290;2023-08-24T05:37:20;18.70;1.40
429;DHT22;201;48.758;9.290;2023-08-24T05:39:45;18.80;1.40
429;DHT22;201;48.758;9.290;2023-08-24T05:42:11;18.90;1.00
429;DHT22;201;48.758;9.290;2023-08-24T05:44:37;19.00;1.00
429;DHT22;201;48.758;9.290;2023-08-24T05:47:03;19.10;1.00
429;DHT22;201;48.758;9.290;2023-08-24T05:49:29;19.20;1.00
429;DHT22;201;48.758;9.290;2023-08-24T05:51:55;19.20;1.00
429;DHT22;201;48.758;9.290;2023-08-24T05:54:20;19.20;1.00
429;DHT22;201;48.758;9.290;2023-08-24T05:56:46;19.30;1.00
429;DHT22;201;48.758;9.290;2023-08-24T05:59:12;19.30;1.00
429;DHT22;201;48.758;9.290;2023-08-24T06:01:38;19.30;1.00
429;DHT22;201;48.758;9.290;2023-08-24T06:04:08;19.40;1.00
429;DHT22;201;48.758;9.290;2023-08-24T06:06:34;19.50;1.00
429;DHT22;201;48.758;9.290;2023-08-24T06:09:00;19.60;1.00
429;DHT22;201;48.758;9.290;2023-08-24T06:11:25;19.80;1.00
429;DHT22;201;48.758;9.290;2023-08-24T06:13:51;20.00;1.00
429;DHT22;201;48.758;9.290;2023-08-24T06:16:19;20.00;1.00
429;DHT22;201;48.758;9.290;2023-08-24T06:18:44;20.20;1.00
429;DHT22;201;48.758;9.290;2023-08-24T06:21:10;20.20;1.00
429;DHT22;201;48.758;9.290;2023-08-24T06:23:35;20.50;1.00
429;DHT22;201;48.758;9.290;2023-08-24T06:26:01;20.80;1.00
429;DHT22;201;48.758;9.290;2023-08-24T06:28:27;21.20;1.00
429;DHT22;201;48.758;9.290;2023-08-24T06:30:55;21.60;1.00
429;DHT22;201;48.758;9.290;2023-08-24T06:33:20;22.10;1.00
429;DHT22;201;48.758;9.290;2023-08-24T06:35:46;22.50;1.00
429;DHT22;201;48.758;9.290;2023-08-24T06:38:12;22.80;1.00
429;DHT22;201;48.758;9.290;2023-08-24T06:40:38;23.20;1.00
429;DHT22;201;48.758;9.290;2023-08-24T06:43:04;23.20;1.00
429;DHT22;201;48.758;9.290;2023-08-24T06:45:29;23.30;1.00
429;DHT22;201;48.758;9.290;2023-08-24T06:47:55;23.20;1.00
429;DHT22;201;48.758;9.290;2023-08-24T06:50:20;23.10;1.00
429;DHT22;201;48.758;9.290;2023-08-24T06:52:46;22.90;1.00
429;DHT22;201;48.758;9.290;2023-08-24T06:55:12;22.80;1.00
429;DHT22;201;48.758;9.290;2023-08-24T06:57:38;22.70;1.00
429;DHT22;201;48.758;9.290;2023-08-24T07:00:04;22.50;1.00
429;DHT22;201;48.758;9.290;2023-08-24T07:02:38;22.20;1.00
429;DHT22;201;48.758;9.290;2023-08-24T07:05:04;21.90;1.00
429;DHT22;201;48.758;9.290;2023-08-24T07:07:34;21.70;1.00
429;DHT22;201;48.758;9.290;2023-08-24T07:10:01;21.40;1.00
429;DHT22;201;48.758;9.290;2023-08-24T07:12:26;21.40;1.00
429;DHT22;201;48.758;9.290;2023-08-24T07:14:52;21.40;1.00
429;DHT22;201;48.758;9.290;2023-08-24T07:17:17;21.40;1.00
429;DHT22;201;48.758;9.290;2023-08-24T07:19:43;21.50;1.00
429;DHT22;201;48.758;9.290;2023-08-24T07:22:09;21.50;1.00
429;DHT22;201;48.758;9.290;2023-08-24T07:24:34;21.60;1.00
429;DHT22;201;48.758;9.290;2023-08-24T07:27:01;22.10;1.00
429;DHT22;201;48.758;9.290;2023-08-24T07:29:28;23.70;1.00
429;DHT22;201;48.758;9.290;2023-08-24T07:31:53;25.50;1.00
429;DHT22;201;48.758;9.290;2023-08-24T07:34:19;26.00;1.00
429;DHT22;201;48.758;9.290;2023-08-24T07:36:44;26.20;1.00
429;DHT22;201;48.758;9.290;2023-08-24T07:39:12;26.50;1.00
429;DHT22;201;48.758;9.290;2023-08-24T07:41:38;27.20;1.00
429;DHT22;201;48.758;9.290;2023-08-24T07:44:03;27.50;1.00
429;DHT22;201;48.758;9.290;2023-08-24T07:46:29;27.20;1.00
429;DHT22;201;48.758;9.290;2023-08-24T07:48:55;27.30;1.00
429;DHT22;201;48.758;9.290;2023-08-24T07:51:21;27.80;1.00
429;DHT22;201;48.758;9.290;2023-08-24T07:53:47;29.00;1.00
429;DHT22;201;48.758;9.290;2023-08-24T07:56:12;31.20;1.00
429;DHT22;201;48.758;9.290;2023-08-24T07:58:38;33.40;1.00
429;DHT22;201;48.758;9.290;2023-08-24T08:01:03;35.20;1.00
429;DHT22;201;48.758;9.290;2023-08-24T08:03:30;36.80;1.00
429;DHT22;201;48.758;9.290;2023-08-24T08:05:56;38.20;1.00
429;DHT22;201;48.758;9.290;2023-08-24T08:08:23;39.10;1.00
429;DHT22;201;48.758;9.290;2023-08-24T08:11:00;39.90;1.00
429;DHT22;201;48.758;9.290;2023-08-24T08:13:28;40.70;1.00
429;DHT22;201;48.758;9.290;2023-08-24T08:15:53;41.00;1.00
429;DHT22;201;48.758;9.290;2023-08-24T08:18:19;41.40;1.00
429;DHT22;201;48.758;9.290;2023-08-24T08:20:45;42.20;1.00
429;DHT22;201;48.758;9.290;2023-08-24T08:23:10;42.00;1.00
429;DHT22;201;48.758;9.290;2023-08-24T08:25:36;40.60;1.00
429;DHT22;201;48.758;9.290;2023-08-24T08:28:01;39.20;1.00
429;DHT22;201;48.758;9.290;2023-08-24T08:30:27;38.00;1.00
429;DHT22;201;48.758;9.290;2023-08-24T08:32:52;38.10;1.00
429;DHT22;201;48.758;9.290;2023-08-24T08:35:19;39.50;1.00
429;DHT22;201;48.758;9.290;2023-08-24T08:37:45;40.90;1.00
429;DHT22;201;48.758;9.290;2023-08-24T08:40:11;42.20;1.00
429;DHT22;201;48.758;9.290;2023-08-24T08:42:37;43.00;1.00
429;DHT22;201;48.758;9.290;2023-08-24T08:45:07;44.10;1.00
429;DHT22;201;48.758;9.290;2023-08-24T08:47:33;44.30;1.00
429;DHT22;201;48.758;9.290;2023-08-24T08:50:01;44.70;1.00
429;DHT22;201;48.758;9.290;2023-08-24T08:52:28;45.70;1.00
429;DHT22;201;48.758;9.290;2023-08-24T08:54:54;45.80;1.00
429;DHT22;201;48.758;9.290;2023-08-24T08:57:22;45.50;1.00
429;DHT22;201;48.758;9.290;2023-08-24T08:59:48;45.80;1.00
429;DHT22;201;48.758;9.290;2023-08-24T09:02:16;46.20;1.00
429;DHT22;201;48.758;9.290;2023-08-24T09:04:45;45.60;1.00
429;DHT22;201;48.758;9.290;2023-08-24T09:07:14;46.10;1.00
429;DHT22;201;48.758;9.290;2023-08-24T09:09:40;45.10;1.00
429;DHT22;201;48.758;9.290;2023-08-24T09:12:06;46.00;1.00
429;DHT22;201;48.758;9.290;2023-08-24T09:14:33;46.90;1.00
429;DHT22;201;48.758;9.290;2023-08-24T09:16:59;47.60;1.00
429;DHT22;201;48.758;9.290;2023-08-24T09:19:29;48.00;1.00
429;DHT22;201;48.758;9.290;2023-08-24T09:21:58;48.60;1.00
429;DHT22;201;48.758;9.290;2023-08-24T09:24:34;48.90;1.00
429;DHT22;201;48.758;9.290;2023-08-24T09:27:00;48.80;1.00
429;DHT22;201;48.758;9.290;2023-08-24T09:29:36;49.20;1.00
429;DHT22;201;48.758;9.290;2023-08-24T09:32:02;47.90;1.00
429;DHT22;201;48.758;9.290;2023-08-24T09:34:28;48.50;1.00
429;DHT22;201;48.758;9.290;2023-08-24T09:36:56;48.70;1.00
429;DHT22;201;48.758;9.290;2023-08-24T09:39:22;48.70;1.00
429;DHT22;201;48.758;9.290;2023-08-24T09:41:50;48.50;1.00
429;DHT22;201;48.758;9.290;2023-08-24T09:44:18;49.30;1.00
429;DHT22;201;48.758;9.290;2023-08-24T09:46:44;49.20;1.00
429;DHT22;201;48.758;9.290;2023-08-24T09:49:10;49.50;1.00
429;DHT22;201;48.758;9.290;2023-08-24T09:51:38;49.90;1.00
429;DHT22;201;48.758;9.290;2023-08-24T09:54:08;50.30;1.00
429;DHT22;201;48.758;9.290;2023-08-24T09:56:38;50.80;1.00
429;DHT22;201;48.758;9.290;2023-08-24T09:59:22;51.20;1.00
429;DHT22;201;48.758;9.290;2023-08-24T10:01:51;51.40;1.00
429;DHT22;201;48.758;9.290;2023-08-24T10:04:29;51.60;1.00
429;DHT22;201;48.758;9.290;2023-08-24T10:07:10;50.90;1.00
429;DHT22;201;48.758;9.290;2023-08-24T10:09:47;50.90;1.00
429;DHT22;201;48.758;9.290;2023-08-24T10:12:18;51.10;1.00
429;DHT22;201;48.758;9.290;2023-08-24T10:14:56;51.30;1.00
429;DHT22;201;48.758;9.290;2023-08-24T10:17:24;51.40;1.00
429;DHT22;201;48.758;9.290;2023-08-24T10:19:52;51.60;1.00
429;DHT22;201;48.758;9.290;2023-08-24T10:22:19;51.50;1.00
429;DHT22;201;48.758;9.290;2023-08-24T10:24:47;51.80;1.00
429;DHT22;201;48.758;9.290;2023-08-24T10:27:14;51.60;1.00
429;DHT22;201;48.758;9.290;2023-08-24T10:29:39;52.20;1.00
429;DHT22;201;48.758;9.290;2023-08-24T10:32:06;51.90;1.00
429;DHT22;201;48.758;9.290;2023-08-24T10:34:32;50.50;1.00
429;DHT22;201;48.758;9.290;2023-08-24T10:37:09;50.40;1.00
429;DHT22;201;48.758;9.290;2023-08-24T10:39:36;49.70;1.00
429;DHT22;201;48.758;9.290;2023-08-24T10:42:05;49.50;1.00
429;DHT22;201;48.758;9.290;2023-08-24T10:44:37;49.10;1.00
429;DHT22;201;48.758;9.290;2023-08-24T10:47:13;48.20;1.00
429;DHT22;201;48.758;9.290;2023-08-24T10:49:40;47.20;1.00
429;DHT22;201;48.758;9.290;2023-08-24T10:52:19;46.10;1.00
429;DHT22;201;48.758;9.290;2023-08-24T10:54:46;45.70;1.00
429;DHT22;201;48.758;9.290;2023-08-24T10:57:21;46.00;1.00
429;DHT22;201;48.758;9.290;2023-08-24T11:02:48;45.40;1.00
429;DHT22;201;48.758;9.290;2023-08-24T11:05:19;45.40;1.00
429;DHT22;201;48.758;9.290;2023-08-24T11:07:57;44.10;1.00
429;DHT22;201;48.758;9.290;2023-08-24T11:10:24;43.70;1.00
429;DHT22;201;48.758;9.290;2023-08-24T11:13:05;42.90;1.00
429;DHT22;201;48.758;9.290;2023-08-24T11:15:32;42.40;1.00
429;DHT22;201;48.758;9.290;2023-08-24T11:18:15;40.70;1.00
429;DHT22;201;48.758;9.290;2023-08-24T11:20:45;39.50;1.00
429;DHT22;201;48.758;9.290;2023-08-24T11:23:12;38.40;1.00
429;DHT22;201;48.758;9.290;2023-08-24T11:25:38;38.20;1.00
429;DHT22;201;48.758;9.290;2023-08-24T11:28:04;37.80;1.00
429;DHT22;201;48.758;9.290;2023-08-24T11:30:31;37.20;1.00
429;DHT22;201;48.758;9.290;2023-08-24T11:32:57;36.90;1.00
429;DHT22;201;48.758;9.290;2023-08-24T11:35:22;36.80;1.00
429;DHT22;201;48.758;9.290;2023-08-24T11:37:55;36.60;1.00
429;DHT22;201;48.758;9.290;2023-08-24T11:40:21;36.30;1.00
429;DHT22;201;48.758;9.290;2023-08-24T11:42:58;36.10;1.00
429;DHT22;201;48.758;9.290;2023-08-24T11:45:24;36.20;1.00
429;DHT22;201;48.758;9.290;2023-08-24T11:47:55;35.90;1.00
429;DHT22;201;48.758;9.290;2023-08-24T11:50:23;35.70;1.00
429;DHT22;201;48.758;9.290;2023-08-24T11:52:48;35.60;1.00
429;DHT22;201;48.758;9.290;2023-08-24T11:55:14;35.40;1.00
429;DHT22;201;48.758;9.290;2023-08-24T11:57:41;35.50;1.00
429;DHT22;201;48.758;9.290;2023-08-24T12:00:07;35.60;1.00
429;DHT22;201;48.758;9.290;2023-08-24T12:02:34;35.70;1.00
429;DHT22;201;48.758;9.290;2023-08-24T12:05:00;35.90;1.00
429;DHT22;201;48.758;9.290;2023-08-24T12:07:27;36.10;1.00
429;DHT22;201;48.758;9.290;2023-08-24T12:09:53;35.80;1.00
429;DHT22;201;48.758;9.290;2023-08-24T12:12:19;35.70;1.00
429;DHT22;201;48.758;9.290;2023-08-24T12:14:47;35.80;1.00
429;DHT22;201;48.758;9.290;2023-08-24T12:17:13;35.90;1.00
429;DHT22;201;48.758;9.290;2023-08-24T12:19:42;35.90;1.00
429;DHT22;201;48.758;9.290;2023-08-24T12:22:13;36.00;1.00
429;DHT22;201;48.758;9.290;2023-08-24T12:24:43;35.50;1.00
429;DHT22;201;48.758;9.290;2023-08-24T12:27:24;35.30;1.00
429;DHT22;201;48.758;9.290;2023-08-24T12:29:49;34.90;1.00
429;DHT22;201;48.758;9.290;2023-08-24T12:32:16;34.90;1.00
429;DHT22;201;48.758;9.290;2023-08-24T12:34:45;35.10;1.00
429;DHT22;201;48.758;9.290;2023-08-24T12:37:11;35.10;1.00
429;DHT22;201;48.758;9.290;2023-08-24T12:39:39;35.30;1.00
429;DHT22;201;48.758;9.290;2023-08-24T12:42:05;35.30;1.00
429;DHT22;201;48.758;9.290;2023-08-24T12:44:30;35.30;1.00
429;DHT22;201;48.758;9.290;2023-08-24T12:46:56;35.40;1.00
429;DHT22;201;48.758;9.290;2023-08-24T12:49:22;35.50;1.00
429;DHT22;201;48.758;9.290;2023-08-24T12:51:48;35.40;1.00
429;DHT22;201;48.758;9.290;2023-08-24T12:54:13;35.50;1.00
429;DHT22;201;48.758;9.290;2023-08-24T12:56:39;35.50;1.00
429;DHT22;201;48.758;9.290;2023-08-24T12:59:08;35.70;1.00
429;DHT22;201;48.758;9.290;2023-08-24T13:01:34;35.90;1.00
429;DHT22;201;48.758;9.290;2023-08-24T13:03:59;35.90;1.00
429;DHT22;201;48.758;9.290;2023-08-24T13:06:25;36.10;1.00
429;DHT22;201;48.758;9.290;2023-08-24T13:08:53;36.30;1.00
429;DHT22;201;48.758;9.290;2023-08-24T13:11:19;36.20;1.00
429;DHT22;201;48.758;9.290;2023-08-24T13:13:44;36.20;1.00
429;DHT22;201;48.758;9.290;2023-08-24T13:16:11;36.20;1.00
429;DHT22;201;48.758;9.290;2023-08-24T13:18:36;36.10;1.00
429;DHT22;201;48.758;9.290;2023-08-24T13:21:02;36.00;1.00
429;DHT22;201;48.758;9.290;2023-08-24T13:23:27;35.80;1.00
429;DHT22;201;48.758;9.290;2023-08-24T13:25:53;35.90;1.00
429;DHT22;201;48.758;9.290;2023-08-24T13:28:18;35.90;1.00
429;DHT22;201;48.758;9.290;2023-08-24T13:30:44;36.00;1.00
429;DHT22;201;48.758;9.290;2023-08-24T13:33:09;36.00;1.00
429;DHT22;201;48.758;9.290;2023-08-24T13:35:35;35.80;1.00
429;DHT22;201;48.758;9.290;2023-08-24T13:38:00;35.90;1.00
429;DHT22;201;48.758;9.290;2023-08-24T13:40:26;35.90;1.00
429;DHT22;201;48.758;9.290;2023-08-24T13:42:51;36.20;1.00
429;DHT22;201;48.758;9.290;2023-08-24T13:45:17;36.40;1.00
429;DHT22;201;48.758;9.290;2023-08-24T13:47:42;36.10;1.00
429;DHT22;201;48.758;9.290;2023-08-24T13:50:08;36.10;1.00
429;DHT22;201;48.758;9.290;2023-08-24T13:52:33;36.10;1.00
429;DHT22;201;48.758;9.290;2023-08-24T13:54:59;36.10;1.00
429;DHT22;201;48.758;9.290;2023-08-24T13:57:26;36.00;1.00
429;DHT22;201;48.758;9.290;2023-08-24T13:59:52;35.80;1.00
429;DHT22;201;48.758;9.290;2023-08-24T14:02:17;35.80;1.00
429;DHT22;201;48.758;9.290;2023-08-24T14:04:43;35.70;1.00
429;DHT22;201;48.758;9.290;2023-08-24T14:07:08;35.90;1.00
429;DHT22;201;48.758;9.290;2023-08-24T14:09:34;36.10;1.00
429;DHT22;201;48.758;9.290;2023-08-24T14:12:00;36.20;1.00
429;DHT22;201;48.758;9.290;2023-08-24T14:14:25;36.30;1.00
429;DHT22;201;48.758;9.290;2023-08-24T14:16:54;36.40;1.00
429;DHT22;201;48.758;9.290;2023-08-24T14:19:21;36.50;1.00
429;DHT22;201;48.758;9.290;2023-08-24T14:21:47;36.30;1.00
429;DHT22;201;48.758;9.290;2023-08-24T14:24:12;36.20;1.00
429;DHT22;201;48.758;9.290;2023-08-24T14:26:38;36.10;1.00
429;DHT22;201;48.758;9.290;2023-08-24T14:29:04;35.90;1.00
429;DHT22;201;48.758;9.290;2023-08-24T14:31:30;35.80;1.00
429;DHT22;201;48.758;9.290;2023-08-24T14:33:56;35.60;1.00
429;DHT22;201;48.758;9.290;2023-08-24T14:36:22;35.40;1.00
429;DHT22;201;48.758;9.290;2023-08-24T14:38:49;35.30;1.00
429;DHT22;201;48.758;9.290;2023-08-24T14:41:15;35.20;1.00
429;DHT22;201;48.758;9.290;2023-08-24T14:43:42;35.10;1.00
429;DHT22;201;48.758;9.290;2023-08-24T14:46:08;35.00;1.00
429;DHT22;201;48.758;9.290;2023-08-24T14:48:33;34.80;1.00
429;DHT22;201;48.758;9.290;2023-08-24T14:50:59;34.50;1.00
429;DHT22;201;48.758;9.290;2023-08-24T14:53:25;34.30;1.00
429;DHT22;201;48.758;9.290;2023-08-24T14:55:53;34.00;1.00
429;DHT22;201;48.758;9.290;2023-08-24T14:58:23;33.70;1.00
429;DHT22;201;48.758;9.290;2023-08-24T15:00:50;33.40;1.00
429;DHT22;201;48.758;9.290;2023-08-24T15:03:16;33.10;1.00
429;DHT22;201;48.758;9.290;2023-08-24T15:05:45;32.90;1.00
429;DHT22;201;48.758;9.290;2023-08-24T15:08:13;32.60;1.00
429;DHT22;201;48.758;9.290;2023-08-24T15:10:38;32.30;1.00
429;DHT22;201;48.758;9.290;2023-08-24T15:13:05;31.50;1.00
429;DHT22;201;48.758;9.290;2023-08-24T15:15:31;30.80;1.00
429;DHT22;201;48.758;9.290;2023-08-24T15:17:57;29.80;1.00
429;DHT22;201;48.758;9.290;2023-08-24T15:20:22;28.30;1.00
429;DHT22;201;48.758;9.290;2023-08-24T15:22:48;27.00;1.00
429;DHT22;201;48.758;9.290;2023-08-24T15:25:14;26.20;1.00
429;DHT22;201;48.758;9.290;2023-08-24T15:27:40;25.70;1.00
429;DHT22;201;48.758;9.290;2023-08-24T15:30:06;25.20;1.00
429;DHT22;201;48.758;9.290;2023-08-24T15:32:31;24.90;1.00
429;DHT22;201;48.758;9.290;2023-08-24T15:35:00;24.90;1.00
429;DHT22;201;48.758;9.290;2023-08-24T15:37:26;25.00;1.00
429;DHT22;201;48.758;9.290;2023-08-24T15:39:51;25.10;1.00
429;DHT22;201;48.758;9.290;2023-08-24T15:42:17;25.10;1.00
429;DHT22;201;48.758;9.290;2023-08-24T15:44:44;25.10;1.00
429;DHT22;201;48.758;9.290;2023-08-24T15:47:09;25.00;1.00
429;DHT22;201;48.758;9.290;2023-08-24T15:49:35;24.80;1.00
429;DHT22;201;48.758;9.290;2023-08-24T15:52:00;24.70;1.00
429;DHT22;201;48.758;9.290;2023-08-24T15:54:26;24.40;1.00
429;DHT22;201;48.758;9.290;2023-08-24T15:56:52;24.30;1.00
429;DHT22;201;48.758;9.290;2023-08-24T15:59:19;24.20;1.00
429;DHT22;201;48.758;9.290;2023-08-24T16:01:45;24.20;1.00
429;DHT22;201;48.758;9.290;2023-08-24T16:04:12;24.20;1.00
429;DHT22;201;48.758;9.290;2023-08-24T16:06:39;24.20;1.00
429;DHT22;201;48.758;9.290;2023-08-24T16:09:04;24.00;1.00
429;DHT22;201;48.758;9.290;2023-08-24T16:11:30;23.90;1.00
429;DHT22;201;48.758;9.290;2023-08-24T16:13:55;23.80;1.00
429;DHT22;201;48.758;9.290;2023-08-24T16:16:21;23.70;1.00
429;DHT22;201;48.758;9.290;2023-08-24T16:18:47;23.90;1.00
429;DHT22;201;48.758;9.290;2023-08-24T16:21:12;24.00;1.00
429;DHT22;201;48.758;9.290;2023-08-24T16:23:38;24.00;1.00
429;DHT22;201;48.758;9.290;2023-08-24T16:26:03;24.00;1.00
429;DHT22;201;48.758;9.290;2023-08-24T16:28:29;23.90;1.00
429;DHT22;201;48.758;9.290;2023-08-24T16:30:54;23.90;1.00
429;DHT22;201;48.758;9.290;2023-08-24T16:33:20;24.00;1.00
429;DHT22;201;48.758;9.290;2023-08-24T16:35:46;24.20;1.00
429;DHT22;201;48.758;9.290;2023-08-24T16:38:12;24.40;1.00
429;DHT22;201;48.758;9.290;2023-08-24T16:40:38;24.50;1.00
429;DHT22;201;48.758;9.290;2023-08-24T16:43:04;24.80;1.00
429;DHT22;201;48.758;9.290;2023-08-24T16:45:31;24.90;1.00
429;DHT22;201;48.758;9.290;2023-08-24T16:47:56;25.10;1.00
429;DHT22;201;48.758;9.290;2023-08-24T16:50:22;25.20;1.00
429;DHT22;201;48.758;9.290;2023-08-24T16:52:48;25.30;1.00
429;DHT22;201;48.758;9.290;2023-08-24T16:55:14;25.30;1.00
429;DHT22;201;48.758;9.290;2023-08-24T16:57:40;25.30;1.00
429;DHT22;201;48.758;9.290;2023-08-24T17:00:06;25.20;1.00